createdAt,value
2016-04-16T00:00:48.883Z,0
2016-04-16T00:01:46.730Z,0
2016-04-16T00:04:47.395Z,0
2016-04-16T00:05:46.788Z,0
2016-04-16T00:06:46.682Z,0
2016-04-16T00:07:46.652Z,0
2016-04-16T00:08:46.655Z,0
2016-04-16T00:09:48.986Z,0
2016-04-16T00:10:49.645Z,0
2016-04-16T00:11:46.632Z,0
2016-04-16T00:12:47.228Z,0
2016-04-16T00:13:46.981Z,0
2016-04-16T00:14:46.609Z,0
2016-04-16T00:15:46.612Z,0
2016-04-16T00:16:46.599Z,0
2016-04-16T00:17:46.602Z,0
2016-04-16T00:18:46.604Z,0
2016-04-16T00:19:46.576Z,0
2016-04-16T00:20:46.578Z,0
2016-04-16T00:21:46.565Z,0
2016-04-16T00:22:46.553Z,0
2016-04-16T00:23:46.556Z,0
2016-04-16T00:24:46.527Z,0
2016-04-16T00:25:46.545Z,0
2016-04-16T00:26:46.517Z,0
2016-04-16T00:27:46.519Z,0
2016-04-16T00:28:46.506Z,0
2016-04-16T00:29:46.494Z,0
2016-04-16T00:30:46.496Z,0
2016-04-16T00:31:46.499Z,0
2016-04-16T00:32:46.485Z,0
2016-04-16T00:33:46.472Z,0
2016-04-16T00:34:46.475Z,0
2016-04-16T00:35:46.447Z,0
2016-04-16T00:36:46.466Z,0
2016-04-16T00:37:46.436Z,0
2016-04-16T00:38:46.439Z,0
2016-04-16T00:39:46.441Z,0
2016-04-16T00:40:46.429Z,0
2016-04-16T00:41:46.401Z,0
2016-04-16T00:42:46.434Z,0
2016-04-16T00:43:46.390Z,0
2016-04-16T00:44:46.408Z,0
2016-04-16T00:45:46.395Z,0
2016-04-16T00:46:46.414Z,0
2016-04-16T00:47:46.370Z,0
2016-04-16T00:48:46.388Z,0
2016-04-16T00:49:46.344Z,0
2016-04-16T00:50:46.362Z,0
2016-04-16T00:51:46.334Z,0
2016-04-16T00:52:46.351Z,0
2016-04-16T00:53:46.324Z,0
2016-04-16T00:54:46.326Z,0
2016-04-16T00:55:46.329Z,0
2016-04-16T00:56:46.317Z,0
2016-04-16T00:57:46.287Z,0
2016-04-16T00:58:46.290Z,0
2016-04-16T00:59:46.292Z,0
2016-04-16T01:00:46.295Z,0
2016-04-16T01:01:46.282Z,0
2016-04-16T01:02:46.113Z,0
2016-04-16T01:03:46.272Z,0
2016-04-16T01:04:46.244Z,0
2016-04-16T01:05:46.262Z,0
2016-04-16T01:06:46.077Z,0
2016-04-16T01:07:46.252Z,0
2016-04-16T01:08:46.566Z,0
2016-04-16T01:09:46.647Z,0
2016-04-16T01:10:46.213Z,0
2016-04-16T01:11:47.137Z,0
2016-04-16T01:12:47.062Z,0
2016-04-16T01:13:46.689Z,0
2016-04-16T01:14:46.271Z,0
2016-04-16T01:15:46.492Z,0
2016-04-16T01:16:46.182Z,0
2016-04-16T01:17:46.168Z,0
2016-04-16T01:18:48.718Z,0
2016-04-16T01:19:46.815Z,0
2016-04-16T01:21:29.384Z,0
2016-04-16T01:21:46.118Z,0
2016-04-16T01:22:49.073Z,0
2016-04-16T01:23:47.639Z,0
2016-04-16T01:24:46.328Z,0
2016-04-16T01:25:46.097Z,0
2016-04-16T01:26:46.114Z,0
2016-04-16T01:27:46.070Z,0
2016-04-16T01:28:47.745Z,0
2016-04-16T01:29:47.123Z,0
2016-04-16T01:30:46.141Z,0
2016-04-16T01:31:46.706Z,0
2016-04-16T01:32:46.522Z,0
2016-04-16T01:33:46.321Z,0
2016-04-16T01:34:46.058Z,0
2016-04-16T01:35:46.014Z,0
2016-04-16T01:36:46.032Z,0
2016-04-16T01:37:46.051Z,0
2016-04-16T01:38:46.022Z,0
2016-04-16T01:39:45.852Z,0
2016-04-16T01:40:46.012Z,0
2016-04-16T01:41:45.999Z,0
2016-04-16T01:42:46.001Z,0
2016-04-16T01:43:45.973Z,0
2016-04-16T01:44:45.991Z,0
2016-04-16T01:45:45.963Z,0
2016-04-16T01:46:45.966Z,0
2016-04-16T01:47:45.938Z,0
2016-04-16T01:48:45.956Z,0
2016-04-16T01:49:45.927Z,0
2016-04-16T01:50:45.945Z,0
2016-04-16T01:51:45.917Z,0
2016-04-16T01:52:45.919Z,0
2016-04-16T01:53:45.922Z,0
2016-04-16T01:54:45.737Z,0
2016-04-16T01:55:45.881Z,0
2016-04-16T01:56:45.884Z,0
2016-04-16T01:57:45.886Z,0
2016-04-16T01:58:45.858Z,0
2016-04-16T01:59:45.891Z,0
2016-04-16T02:00:45.847Z,0
2016-04-16T02:01:45.849Z,0
2016-04-16T02:02:45.840Z,0
2016-04-16T02:03:45.859Z,0
2016-04-16T02:04:46.017Z,0
2016-04-16T02:05:45.833Z,0
2016-04-16T02:06:45.820Z,0
2016-04-16T02:07:45.807Z,0
2016-04-16T02:08:45.809Z,0
2016-04-16T02:09:45.812Z,0
2016-04-16T02:10:45.800Z,0
2016-04-16T02:11:45.787Z,0
2016-04-16T02:12:48.775Z,0
2016-04-16T02:13:45.777Z,0
2016-04-16T02:14:48.748Z,0
2016-04-16T02:15:52.000Z,0
2016-04-16T02:16:49.160Z,0
2016-04-16T02:17:46.177Z,0
2016-04-16T02:18:45.727Z,0
2016-04-16T02:19:45.746Z,0
2016-04-16T02:20:45.717Z,0
2016-04-16T02:21:45.728Z,0
2016-04-16T02:22:45.710Z,0
2016-04-16T02:23:45.712Z,0
2016-04-16T02:24:45.699Z,0
2016-04-16T02:25:45.685Z,0
2016-04-16T02:26:45.688Z,0
2016-04-16T02:27:48.223Z,0
2016-04-16T02:28:47.100Z,0
2016-04-16T02:29:45.666Z,0
2016-04-16T02:30:46.684Z,0
2016-04-16T02:31:46.562Z,0
2016-04-16T02:32:45.908Z,0
2016-04-16T02:33:45.926Z,0
2016-04-16T02:34:45.616Z,0
2016-04-16T02:35:45.494Z,0
2016-04-16T02:36:45.606Z,0
2016-04-16T02:38:01.797Z,0
2016-04-16T02:38:46.300Z,0
2016-04-16T02:39:46.083Z,0
2016-04-16T02:41:01.258Z,0
2016-04-16T02:41:46.838Z,0
2016-04-16T02:42:46.138Z,0
2016-04-16T02:43:46.155Z,0
2016-04-16T02:44:45.621Z,0
2016-04-16T02:45:45.652Z,0
2016-04-16T02:46:46.181Z,0
2016-04-16T02:47:48.961Z,0
2016-04-16T02:48:45.741Z,0
2016-04-16T02:49:46.838Z,0
2016-04-16T02:50:45.950Z,0
2016-04-16T02:51:45.780Z,0
2016-04-16T02:52:45.798Z,0
2016-04-16T02:53:45.786Z,0
2016-04-16T02:54:45.059Z,0
2016-04-16T02:55:45.802Z,0
2016-04-16T02:56:45.764Z,0
2016-04-16T02:57:45.772Z,0
2016-04-16T02:58:45.796Z,0
2016-04-16T02:59:45.769Z,0
2016-04-16T03:00:45.790Z,0
2016-04-16T03:01:45.763Z,0
2016-04-16T03:02:45.769Z,0
2016-04-16T03:03:45.741Z,0
2016-04-16T03:04:45.760Z,0
2016-04-16T03:05:45.983Z,0
2016-04-16T03:06:45.751Z,0
2016-04-16T03:07:45.740Z,0
2016-04-16T03:08:45.727Z,0
2016-04-16T03:09:45.715Z,0
2016-04-16T03:10:45.702Z,0
2016-04-16T03:11:45.706Z,0
2016-04-16T03:12:45.709Z,0
2016-04-16T03:13:48.696Z,0
2016-04-16T03:14:45.511Z,0
2016-04-16T03:15:45.686Z,0
2016-04-16T03:16:45.861Z,0
2016-04-16T03:17:45.675Z,0
2016-04-16T03:18:45.662Z,0
2016-04-16T03:19:45.868Z,0
2016-04-16T03:20:45.903Z,0
2016-04-16T03:21:45.670Z,0
2016-04-16T03:22:45.627Z,0
2016-04-16T03:23:48.613Z,0
2016-04-16T03:24:45.616Z,0
2016-04-16T03:25:45.821Z,0
2016-04-16T03:26:45.793Z,0
2016-04-16T03:27:48.811Z,0
2016-04-16T03:28:45.627Z,0
2016-04-16T03:29:45.599Z,0
2016-04-16T03:30:45.554Z,0
2016-04-16T03:31:45.572Z,0
2016-04-16T03:32:45.560Z,0
2016-04-16T03:33:45.562Z,0
2016-04-16T03:34:45.534Z,0
2016-04-16T03:35:46.348Z,0
2016-04-16T03:36:45.523Z,0
2016-04-16T03:37:45.526Z,0
2016-04-16T03:38:45.529Z,0
2016-04-16T03:39:45.718Z,0
2016-04-16T03:40:45.503Z,0
2016-04-16T03:41:45.490Z,0
2016-04-16T03:42:45.680Z,0
2016-04-16T03:43:45.496Z,0
2016-04-16T03:44:45.482Z,0
2016-04-16T03:45:45.485Z,0
2016-04-16T03:46:46.253Z,0
2016-04-16T03:47:47.865Z,0
2016-04-16T03:48:45.962Z,0
2016-04-16T03:49:46.355Z,0
2016-04-16T03:50:46.202Z,0
2016-04-16T03:51:46.047Z,0
2016-04-16T03:52:48.426Z,0
2016-04-16T03:53:45.460Z,0
2016-04-16T03:54:45.900Z,0
2016-04-16T04:09:03.140Z,15
2016-04-16T04:10:12.409Z,15
2016-04-16T04:11:04.037Z,15
2016-04-16T04:14:23.156Z,20
2016-04-16T04:15:01.047Z,20
2016-04-16T04:15:41.628Z,20
2016-04-16T04:17:06.725Z,25
2016-04-16T04:17:41.602Z,25
2016-04-16T04:18:35.355Z,25
2016-04-16T04:19:51.092Z,30
2016-04-16T04:22:54.022Z,35
2016-04-16T04:24:33.418Z,35
2016-04-16T04:25:17.014Z,35
2016-04-16T04:26:36.219Z,40
2016-04-16T04:27:03.563Z,40
2016-04-16T04:28:15.085Z,40
2016-04-16T06:23:46.851Z,520
2016-04-16T06:24:44.275Z,470
2016-04-16T06:25:44.278Z,395
2016-04-16T06:26:44.281Z,385
2016-04-16T06:27:44.267Z,390
2016-04-16T06:28:44.269Z,405
2016-04-16T06:29:44.258Z,440
2016-04-16T06:30:44.306Z,470
2016-04-16T06:31:44.278Z,505
2016-04-16T06:32:44.296Z,515
2016-04-16T06:33:44.299Z,525
2016-04-16T06:34:44.286Z,525
2016-04-16T06:35:44.304Z,535
2016-04-16T06:36:44.308Z,525
2016-04-16T06:37:44.294Z,535
2016-04-16T06:38:44.313Z,510
2016-04-16T06:39:44.299Z,510
2016-04-16T06:40:44.302Z,560
2016-04-16T06:41:44.321Z,515
2016-04-16T06:42:44.183Z,555
2016-04-16T06:43:44.296Z,585
2016-04-16T06:44:44.313Z,415
2016-04-16T06:45:44.301Z,420
2016-04-16T06:46:44.396Z,385
2016-04-16T06:47:44.352Z,395
2016-04-16T06:48:44.340Z,395
2016-04-16T06:49:44.186Z,395
2016-04-16T06:50:44.345Z,400
2016-04-16T06:51:44.317Z,415
2016-04-16T06:52:44.320Z,470
2016-04-16T06:53:44.322Z,490
2016-04-16T06:54:44.356Z,590
2016-04-16T06:55:44.359Z,805
2016-04-16T06:56:45.330Z,620
2016-04-16T06:57:44.661Z,580
2016-04-16T06:58:45.898Z,530
2016-04-16T06:59:44.322Z,540
2016-04-16T07:00:44.356Z,570
2016-04-16T07:01:45.000Z,610
2016-04-16T07:02:44.346Z,695
2016-04-16T07:03:44.349Z,655
2016-04-16T07:04:44.383Z,635
2016-04-16T07:07:45.375Z,705
2016-04-16T07:08:45.455Z,745
2016-04-16T07:09:45.161Z,1150
2016-04-16T07:10:45.163Z,1080
2016-04-16T07:11:44.386Z,1310
2016-04-16T07:12:45.092Z,1335
2016-04-16T07:13:44.625Z,1255
2016-04-16T07:14:44.363Z,1295
2016-04-16T07:15:46.224Z,1330
2016-04-16T07:16:46.071Z,1360
2016-04-16T07:17:45.262Z,960
2016-04-16T07:18:44.404Z,930
2016-04-16T07:19:45.157Z,805
2016-04-16T07:20:44.800Z,1155
2016-04-16T07:21:44.584Z,1150
2016-04-16T07:22:44.431Z,970
2016-04-16T07:23:44.417Z,885
2016-04-16T07:24:44.561Z,650
2016-04-16T07:25:44.423Z,625
2016-04-16T07:26:44.442Z,640
2016-04-16T07:27:44.459Z,680
2016-04-16T07:28:44.478Z,640
2016-04-16T07:29:44.465Z,685
2016-04-16T07:30:44.468Z,1065
2016-04-16T07:31:44.628Z,1220
2016-04-16T07:32:44.505Z,1190
2016-04-16T07:33:44.492Z,1030
2016-04-16T07:34:44.510Z,880
2016-04-16T07:35:44.528Z,1190
2016-04-16T07:36:44.516Z,1110
2016-04-16T07:37:44.502Z,940
2016-04-16T07:38:44.521Z,905
2016-04-16T07:39:44.538Z,900
2016-04-16T07:40:44.557Z,920
2016-04-16T07:41:44.545Z,930
2016-04-16T07:42:44.546Z,960
2016-04-16T07:43:44.549Z,990
2016-04-16T07:44:44.568Z,1025
2016-04-16T07:45:44.571Z,1015
2016-04-16T07:46:44.590Z,1015
2016-04-16T07:47:44.593Z,1015
2016-04-16T07:48:44.595Z,985
2016-04-16T07:49:44.613Z,870
2016-04-16T07:50:44.615Z,915
2016-04-16T07:51:44.618Z,910
2016-04-16T07:52:44.637Z,915
2016-04-16T07:53:44.624Z,905
2016-04-16T07:54:44.626Z,915
2016-04-16T07:55:44.645Z,970
2016-04-16T07:56:44.679Z,1000
2016-04-16T07:57:44.666Z,1045
2016-04-16T07:58:44.683Z,990
2016-04-16T07:59:44.686Z,990
2016-04-16T08:00:44.674Z,980
2016-04-16T08:01:44.692Z,945
2016-04-16T08:02:44.725Z,945
2016-04-16T08:03:44.728Z,855
2016-04-16T08:04:44.966Z,830
2016-04-16T08:05:44.734Z,805
2016-04-16T08:06:44.580Z,760
2016-04-16T08:07:44.771Z,745
2016-04-16T08:08:44.742Z,700
2016-04-16T08:09:44.792Z,660
2016-04-16T08:10:44.779Z,670
2016-04-16T08:11:44.782Z,685
2016-04-16T08:12:44.612Z,690
2016-04-16T08:13:44.802Z,665
2016-04-16T08:14:44.790Z,635
2016-04-16T08:16:00.198Z,615
2016-04-16T08:16:45.702Z,610
2016-04-16T08:17:44.834Z,585
2016-04-16T08:18:44.868Z,580
2016-04-16T08:19:44.949Z,570
2016-04-16T08:20:45.045Z,585
2016-04-16T08:21:45.000Z,590
2016-04-16T08:22:44.848Z,590
2016-04-16T08:23:44.865Z,585
2016-04-16T08:24:45.743Z,580
2016-04-16T08:25:47.636Z,590
2016-04-16T08:26:44.951Z,580
2016-04-16T08:28:13.751Z,575
2016-04-16T08:28:45.003Z,570
2016-04-16T08:29:45.444Z,545
2016-04-16T08:30:44.962Z,500
2016-04-16T08:31:45.528Z,460
2016-04-16T08:32:44.952Z,395
2016-04-16T08:33:44.939Z,340
2016-04-16T08:34:47.567Z,300
2016-04-16T08:35:46.694Z,270
2016-04-16T08:36:45.682Z,245
2016-04-16T08:37:45.778Z,240
2016-04-16T08:38:45.515Z,270
2016-04-16T08:39:45.221Z,300
2016-04-16T08:40:45.474Z,300
2016-04-16T08:41:44.960Z,295
2016-04-16T08:42:44.963Z,285
2016-04-16T08:43:44.982Z,260
2016-04-16T08:44:44.969Z,230
2016-04-16T08:45:44.988Z,220
2016-04-16T08:46:44.990Z,210
2016-04-16T08:47:44.993Z,205
2016-04-16T08:48:44.979Z,205
2016-04-16T08:49:44.826Z,200
2016-04-16T08:50:45.001Z,195
2016-04-16T08:51:45.051Z,195
2016-04-16T08:52:45.021Z,220
2016-04-16T08:53:45.009Z,235
2016-04-16T08:54:44.996Z,255
2016-04-16T08:55:44.998Z,265
2016-04-16T08:56:45.017Z,265
2016-04-16T08:57:45.003Z,250
2016-04-16T08:58:45.053Z,240
2016-04-16T08:59:45.024Z,225
2016-04-16T09:00:45.028Z,200
2016-04-16T09:01:44.999Z,190
2016-04-16T09:02:45.017Z,180
2016-04-16T09:03:45.051Z,180
2016-04-16T09:04:45.038Z,175
2016-04-16T09:05:45.041Z,170
2016-04-16T09:06:45.028Z,160
2016-04-16T09:07:45.031Z,160
2016-04-16T09:08:45.033Z,170
2016-04-16T09:09:45.021Z,180
2016-04-16T09:10:45.054Z,185
2016-04-16T09:11:45.026Z,185
2016-04-16T09:12:45.044Z,185
2016-04-16T09:13:45.031Z,175
2016-04-16T09:14:45.065Z,170
2016-04-16T09:15:45.037Z,170
2016-04-16T09:16:45.055Z,155
2016-04-16T09:17:45.043Z,145
2016-04-16T09:18:45.044Z,145
2016-04-16T09:19:45.047Z,140
2016-04-16T09:20:45.050Z,155
2016-04-16T09:21:45.381Z,200
2016-04-16T09:22:45.039Z,235
2016-04-16T09:23:45.043Z,290
2016-04-16T09:24:45.045Z,345
2016-04-16T09:25:45.079Z,370
2016-04-16T09:26:45.050Z,380
2016-04-16T09:27:45.069Z,375
2016-04-16T09:28:45.072Z,395
2016-04-16T09:29:45.075Z,415
2016-04-16T09:30:45.046Z,435
2016-04-16T09:31:45.080Z,450
2016-04-16T09:32:45.051Z,460
2016-04-16T09:33:45.069Z,475
2016-04-16T09:34:47.009Z,490
2016-04-16T09:35:45.558Z,500
2016-04-16T09:36:46.577Z,490
2016-04-16T09:37:59.314Z,485
2016-04-16T09:38:45.458Z,475
2016-04-16T09:39:45.070Z,470
2016-04-16T09:40:45.510Z,475
2016-04-16T09:41:45.075Z,460
2016-04-16T09:42:45.155Z,450
2016-04-16T09:43:46.971Z,450
2016-04-16T09:44:48.957Z,465
2016-04-16T09:45:47.960Z,495
2016-04-16T09:46:45.291Z,510
2016-04-16T09:47:46.060Z,515
2016-04-16T09:48:46.109Z,500
2016-04-16T09:49:46.424Z,475
2016-04-16T09:50:45.084Z,440
2016-04-16T09:51:44.930Z,415
2016-04-16T09:52:45.371Z,380
2016-04-16T09:53:45.357Z,345
2016-04-16T09:54:45.095Z,315
2016-04-16T09:55:45.644Z,280
2016-04-16T09:56:46.053Z,260
2016-04-16T09:57:45.790Z,245
2016-04-16T09:58:45.464Z,235
2016-04-16T09:59:45.092Z,235
2016-04-16T10:00:45.078Z,235
2016-04-16T10:01:44.942Z,240
2016-04-16T10:02:45.085Z,245
2016-04-16T10:03:45.087Z,250
2016-04-16T10:04:45.105Z,260
2016-04-16T10:05:45.108Z,265
2016-04-16T10:06:45.127Z,275
2016-04-16T10:07:45.114Z,290
2016-04-16T10:08:45.117Z,290
2016-04-16T10:09:45.088Z,295
2016-04-16T10:10:45.122Z,290
2016-04-16T10:11:45.125Z,285
2016-04-16T10:12:45.127Z,275
2016-04-16T10:13:45.114Z,275
2016-04-16T10:14:45.102Z,280
2016-04-16T10:15:44.964Z,290
2016-04-16T10:16:45.122Z,300
2016-04-16T10:17:45.125Z,320
2016-04-16T10:18:45.112Z,340
2016-04-16T10:19:45.130Z,360
2016-04-16T10:20:45.101Z,365
2016-04-16T10:21:45.120Z,370
2016-04-16T10:22:45.138Z,375
2016-04-16T10:23:45.126Z,375
2016-04-16T10:24:45.113Z,375
2016-04-16T10:25:45.131Z,375
2016-04-16T10:26:45.118Z,375
2016-04-16T10:27:45.105Z,385
2016-04-16T10:28:45.108Z,385
2016-04-16T10:29:45.156Z,390
2016-04-16T10:30:45.113Z,395
2016-04-16T10:31:45.147Z,405
2016-04-16T10:32:45.150Z,400
2016-04-16T10:33:45.136Z,415
2016-04-16T10:34:45.108Z,425
2016-04-16T10:35:45.158Z,435
2016-04-16T10:36:44.989Z,430
2016-04-16T10:37:45.133Z,430
2016-04-16T10:38:45.135Z,435
2016-04-16T10:39:45.122Z,445
2016-04-16T10:40:45.140Z,450
2016-04-16T10:41:45.127Z,460
2016-04-16T10:42:45.146Z,465
2016-04-16T10:43:45.149Z,480
2016-04-16T10:44:45.135Z,490
2016-04-16T10:45:45.138Z,500
2016-04-16T10:46:45.141Z,515
2016-04-16T10:47:45.127Z,525
2016-04-16T10:48:45.130Z,535
2016-04-16T10:49:45.132Z,540
2016-04-16T10:50:45.167Z,545
2016-04-16T10:51:45.122Z,540
2016-04-16T10:52:45.140Z,530
2016-04-16T10:53:46.768Z,520
2016-04-16T10:54:45.146Z,510
2016-04-16T10:55:45.133Z,515
2016-04-16T10:56:45.151Z,510
2016-04-16T10:57:45.592Z,505
2016-04-16T10:58:45.423Z,475
2016-04-16T10:59:45.160Z,475
2016-04-16T11:00:45.226Z,470
2016-04-16T11:01:45.150Z,475
2016-04-16T11:02:48.496Z,490
2016-04-16T11:04:02.655Z,495
2016-04-16T11:04:46.236Z,515
2016-04-16T11:05:45.003Z,510
2016-04-16T11:07:00.288Z,515
2016-04-16T11:07:45.525Z,505
2016-04-16T11:08:45.169Z,475
2016-04-16T11:09:45.187Z,465
2016-04-16T11:10:45.158Z,405
2016-04-16T11:11:47.927Z,380
2016-04-16T11:12:46.757Z,405
2016-04-16T11:13:45.260Z,315
2016-04-16T11:14:46.090Z,295
2016-04-16T11:15:45.827Z,240
2016-04-16T11:16:45.737Z,330
2016-04-16T11:17:45.052Z,405
2016-04-16T11:18:45.663Z,435
2016-04-16T11:19:45.385Z,395
2016-04-16T11:20:45.216Z,400
2016-04-16T11:21:45.219Z,390
2016-04-16T11:22:45.190Z,400
2016-04-16T11:23:45.209Z,400
2016-04-16T11:24:45.196Z,395
2016-04-16T11:25:45.229Z,385
2016-04-16T11:26:45.185Z,370
2016-04-16T11:27:45.220Z,360
2016-04-16T11:28:45.206Z,355
2016-04-16T11:29:45.225Z,355
2016-04-16T11:30:45.211Z,350
2016-04-16T11:31:45.231Z,345
2016-04-16T11:32:45.217Z,345
2016-04-16T11:33:45.204Z,345
2016-04-16T11:34:45.223Z,350
2016-04-16T11:35:45.225Z,355
2016-04-16T11:36:45.228Z,350
2016-04-16T11:37:45.215Z,350
2016-04-16T11:38:45.249Z,335
2016-04-16T11:39:45.220Z,345
2016-04-16T11:40:45.223Z,350
2016-04-16T11:41:45.225Z,340
2016-04-16T11:42:45.244Z,340
2016-04-16T11:43:45.247Z,325
2016-04-16T11:44:45.233Z,360
2016-04-16T11:45:45.252Z,340
2016-04-16T11:46:45.239Z,390
2016-04-16T11:47:45.241Z,395
2016-04-16T11:48:45.229Z,390
2016-04-16T11:49:45.247Z,435
2016-04-16T11:50:45.309Z,475
2016-04-16T11:51:45.356Z,470
2016-04-16T11:52:45.387Z,475
2016-04-16T11:53:45.402Z,430
2016-04-16T11:54:45.480Z,455
2016-04-16T11:55:45.485Z,490
2016-04-16T11:56:45.487Z,505
2016-04-16T11:57:45.536Z,530
2016-04-16T11:58:45.524Z,580
2016-04-16T11:59:45.542Z,585
2016-04-16T12:00:45.410Z,625
2016-04-16T12:01:45.576Z,615
2016-04-16T12:02:45.568Z,595
2016-04-16T12:03:45.576Z,580
2016-04-16T12:04:45.585Z,545
2016-04-16T12:05:45.589Z,525
2016-04-16T12:06:45.594Z,530
2016-04-16T12:07:45.616Z,500
2016-04-16T12:08:45.604Z,515
2016-04-16T12:09:45.610Z,515
2016-04-16T12:10:45.613Z,535
2016-04-16T12:11:45.617Z,505
2016-04-16T12:12:46.464Z,485
2016-04-16T12:13:46.592Z,445
2016-04-16T12:14:46.252Z,410
2016-04-16T12:15:45.974Z,395
2016-04-16T12:16:45.930Z,370
2016-04-16T12:17:45.903Z,355
2016-04-16T12:18:45.827Z,370
2016-04-16T12:19:45.643Z,360
2016-04-16T12:20:45.739Z,335
2016-04-16T12:21:48.101Z,300
2016-04-16T12:22:47.088Z,300
2016-04-16T12:23:48.888Z,295
2016-04-16T12:24:45.828Z,310
2016-04-16T12:25:46.128Z,305
2016-04-16T12:26:45.661Z,305
2016-04-16T12:27:46.617Z,325
2016-04-16T12:28:45.933Z,320
2016-04-16T12:29:45.763Z,345
2016-04-16T12:30:46.875Z,350
2016-04-16T12:31:48.425Z,350
2016-04-16T12:32:46.225Z,340
2016-04-16T12:33:46.696Z,330
2016-04-16T12:34:46.229Z,325
2016-04-16T12:35:46.280Z,310
2016-04-16T12:36:46.485Z,315
2016-04-16T12:37:45.660Z,285
2016-04-16T12:38:45.679Z,330
2016-04-16T12:39:45.665Z,325
2016-04-16T12:40:45.684Z,325
2016-04-16T12:41:45.671Z,365
2016-04-16T12:42:45.657Z,330
2016-04-16T12:43:45.660Z,375
2016-04-16T12:44:45.679Z,365
2016-04-16T12:45:45.665Z,380
2016-04-16T12:46:45.684Z,395
2016-04-16T12:47:45.670Z,405
2016-04-16T12:48:45.690Z,405
2016-04-16T12:49:45.661Z,390
2016-04-16T12:50:45.664Z,405
2016-04-16T12:51:45.682Z,410
2016-04-16T12:52:45.887Z,420
2016-04-16T12:53:45.687Z,400
2016-04-16T12:54:45.674Z,405
2016-04-16T12:55:45.692Z,410
2016-04-16T12:56:45.664Z,430
2016-04-16T12:57:45.697Z,425
2016-04-16T12:58:45.685Z,395
2016-04-16T12:59:45.672Z,435
2016-04-16T13:00:45.691Z,505
2016-04-16T13:01:45.677Z,520
2016-04-16T13:02:45.696Z,490
2016-04-16T13:03:45.682Z,520
2016-04-16T13:04:45.716Z,555
2016-04-16T13:05:45.688Z,535
2016-04-16T13:06:45.675Z,475
2016-04-16T13:07:46.193Z,560
2016-04-16T13:08:45.696Z,570
2016-04-16T13:09:45.715Z,545
2016-04-16T13:10:45.685Z,540
2016-04-16T13:11:45.720Z,555
2016-04-16T13:12:45.691Z,565
2016-04-16T13:13:45.709Z,570
2016-04-16T13:14:45.697Z,575
2016-04-16T13:15:45.731Z,585
2016-04-16T13:16:45.717Z,570
2016-04-16T13:17:45.720Z,565
2016-04-16T13:18:45.707Z,550
2016-04-16T13:19:45.726Z,550
2016-04-16T13:20:45.713Z,555
2016-04-16T13:21:45.731Z,580
2016-04-16T13:22:45.953Z,635
2016-04-16T13:23:45.737Z,690
2016-04-16T13:24:45.708Z,700
2016-04-16T13:25:45.742Z,680
2016-04-16T13:26:45.839Z,680
2016-04-16T13:27:45.731Z,665
2016-04-16T13:28:45.750Z,655
2016-04-16T13:29:45.752Z,645
2016-04-16T13:30:45.739Z,615
2016-04-16T13:31:46.180Z,580
2016-04-16T13:32:45.807Z,540
2016-04-16T13:33:45.779Z,510
2016-04-16T13:35:00.641Z,460
2016-04-16T13:35:46.316Z,445
2016-04-16T13:36:45.772Z,430
2016-04-16T13:37:46.087Z,420
2016-04-16T13:38:45.793Z,400
2016-04-16T13:39:45.779Z,370
2016-04-16T13:41:00.751Z,330
2016-04-16T13:41:45.769Z,315
2016-04-16T13:42:46.896Z,300
2016-04-16T13:43:45.994Z,305
2016-04-16T13:44:46.059Z,320
2016-04-16T13:45:46.124Z,340
2016-04-16T13:46:46.190Z,375
2016-04-16T13:47:45.801Z,425
2016-04-16T13:48:45.804Z,515
2016-04-16T13:49:48.087Z,580
2016-04-16T13:50:46.418Z,600
2016-04-16T13:51:46.795Z,590
2016-04-16T13:52:46.830Z,580
2016-04-16T13:53:46.176Z,595
2016-04-16T13:54:45.866Z,630
2016-04-16T13:55:45.885Z,660
2016-04-16T13:56:45.997Z,710
2016-04-16T13:57:45.828Z,710
2016-04-16T13:58:45.847Z,690
2016-04-16T13:59:45.849Z,680
2016-04-16T14:00:45.852Z,645
2016-04-16T14:01:45.714Z,615
2016-04-16T14:02:45.857Z,550
2016-04-16T14:03:45.828Z,500
2016-04-16T14:04:45.862Z,480
2016-04-16T14:05:45.849Z,450
2016-04-16T14:06:45.868Z,445
2016-04-16T14:07:45.871Z,445
2016-04-16T14:08:45.857Z,420
2016-04-16T14:09:45.844Z,405
2016-04-16T14:10:45.863Z,450
2016-04-16T14:11:45.896Z,495
2016-04-16T14:12:45.868Z,515
2016-04-16T14:13:45.886Z,530
2016-04-16T14:14:45.873Z,490
2016-04-16T14:15:45.907Z,470
2016-04-16T14:16:45.879Z,450
2016-04-16T14:17:45.912Z,455
2016-04-16T14:18:45.900Z,445
2016-04-16T14:19:45.887Z,455
2016-04-16T14:20:45.905Z,480
2016-04-16T14:21:45.923Z,515
2016-04-16T14:22:46.161Z,500
2016-04-16T14:23:45.929Z,475
2016-04-16T14:24:45.916Z,475
2016-04-16T14:25:45.919Z,475
2016-04-16T14:26:45.922Z,460
2016-04-16T14:27:45.956Z,470
2016-04-16T14:28:45.912Z,415
2016-04-16T14:29:45.961Z,385
2016-04-16T14:30:45.933Z,365
2016-04-16T14:31:45.950Z,365
2016-04-16T14:32:45.922Z,350
2016-04-16T14:33:45.941Z,345
2016-04-16T14:34:45.943Z,350
2016-04-16T14:35:45.961Z,360
2016-04-16T14:36:45.964Z,365
2016-04-16T14:37:45.983Z,330
2016-04-16T14:38:45.954Z,305
2016-04-16T14:39:45.846Z,285
2016-04-16T14:40:45.974Z,275
2016-04-16T14:41:45.993Z,265
2016-04-16T14:42:45.949Z,245
2016-04-16T14:43:45.982Z,220
2016-04-16T14:44:45.829Z,200
2016-04-16T14:45:45.988Z,195
2016-04-16T14:46:45.976Z,195
2016-04-16T14:47:45.993Z,195
2016-04-16T14:48:45.981Z,195
2016-04-16T14:50:00.187Z,195
2016-04-16T14:50:48.298Z,190
2016-04-16T14:51:47.114Z,190
2016-04-16T14:52:46.006Z,195
2016-04-16T14:53:46.447Z,185
2016-04-16T14:54:46.559Z,180
2016-04-16T14:55:46.234Z,180
2016-04-16T14:56:46.034Z,180
2016-04-16T14:57:45.990Z,185
2016-04-16T14:58:47.383Z,190
2016-04-16T14:59:47.853Z,195
2016-04-16T15:00:46.513Z,195
2016-04-16T15:01:47.219Z,195
2016-04-16T15:02:47.550Z,200
2016-04-16T15:04:00.740Z,200
2016-04-16T15:04:46.008Z,200
2016-04-16T15:05:46.433Z,200
2016-04-16T15:06:46.155Z,205
2016-04-16T15:07:46.000Z,205
2016-04-16T15:08:46.410Z,200
2016-04-16T15:09:47.100Z,205
2016-04-16T15:10:47.133Z,210
2016-04-16T15:11:46.605Z,205
2016-04-16T15:12:46.655Z,205
2016-04-16T15:13:46.283Z,205
2016-04-16T15:14:46.848Z,200
2016-04-16T15:15:46.022Z,190
2016-04-16T15:16:46.024Z,185
2016-04-16T15:17:46.012Z,185
2016-04-16T15:18:46.015Z,190
2016-04-16T15:19:46.001Z,190
2016-04-16T15:20:46.020Z,195
2016-04-16T15:21:46.006Z,215
2016-04-16T15:22:46.026Z,225
2016-04-16T15:23:46.012Z,240
2016-04-16T15:24:46.031Z,250
2016-04-16T15:25:46.002Z,255
2016-04-16T15:26:46.020Z,270
2016-04-16T15:27:46.023Z,240
2016-04-16T15:28:46.026Z,235
2016-04-16T15:29:45.997Z,215
2016-04-16T15:30:46.031Z,205
2016-04-16T15:31:46.019Z,205
2016-04-16T15:32:46.021Z,210
2016-04-16T15:33:45.992Z,225
2016-04-16T15:34:46.026Z,260
2016-04-16T15:35:46.013Z,280
2016-04-16T15:36:46.000Z,335
2016-04-16T15:37:46.002Z,280
2016-04-16T15:38:46.005Z,240
2016-04-16T15:39:45.993Z,225
2016-04-16T15:40:46.027Z,220
2016-04-16T15:41:45.999Z,225
2016-04-16T15:42:46.002Z,230
2016-04-16T15:43:46.004Z,225
2016-04-16T15:44:46.038Z,215
2016-04-16T15:45:45.994Z,200
2016-04-16T15:46:46.027Z,195
2016-04-16T15:47:46.015Z,185
2016-04-16T15:48:46.017Z,175
2016-04-16T15:49:45.988Z,175
2016-04-16T15:50:46.007Z,175
2016-04-16T15:51:46.009Z,175
2016-04-16T15:52:46.012Z,185
2016-04-16T15:53:46.031Z,190
2016-04-16T15:54:46.001Z,190
2016-04-16T15:55:46.021Z,190
2016-04-16T15:56:46.023Z,195
2016-04-16T15:57:46.026Z,200
2016-04-16T15:58:46.012Z,210
2016-04-16T15:59:46.015Z,210
2016-04-16T16:00:46.050Z,215
2016-04-16T16:01:46.006Z,210
2016-04-16T16:02:46.023Z,205
2016-04-16T16:03:45.995Z,190
2016-04-16T16:04:46.014Z,165
2016-04-16T16:05:46.000Z,150
2016-04-16T16:06:46.003Z,150
2016-04-16T16:07:46.006Z,165
2016-04-16T16:08:48.009Z,180
2016-04-16T16:09:47.621Z,190
2016-04-16T16:10:46.342Z,200
2016-04-16T16:12:00.469Z,170
2016-04-16T16:12:45.988Z,140
2016-04-16T16:13:46.584Z,120
2016-04-16T16:14:45.993Z,105
2016-04-16T16:15:46.027Z,85
2016-04-16T16:16:46.107Z,70
2016-04-16T16:17:47.610Z,60
2016-04-16T16:18:48.457Z,65